createdAt,value
2022-12-24T00:01:39.382Z,33.28
2022-12-24T00:04:08.421Z,31.80
2022-12-24T00:06:37.372Z,33.10
2022-12-24T00:09:06.404Z,32.03
2022-12-24T00:11:35.272Z,31.02
2022-12-24T00:14:04.164Z,31.90
2022-12-24T00:16:32.949Z,32.85
2022-12-24T00:19:01.836Z,33.30
2022-12-24T00:21:30.635Z,32.22
2022-12-24T00:23:59.439Z,35.13
2022-12-24T00:26:28.385Z,33.97
2022-12-24T00:28:57.283Z,34.97
2022-12-24T00:31:26.879Z,39.55
2022-12-24T00:33:56.174Z,35.38
2022-12-24T00:36:25.124Z,35.45
2022-12-24T00:38:53.864Z,39.63
2022-12-24T00:41:26.136Z,39.95
2022-12-24T00:43:57.482Z,45.67
2022-12-24T00:46:28.549Z,51.75
2022-12-24T00:48:57.416Z,45.13
2022-12-24T00:51:26.743Z,52.30
2022-12-24T00:53:55.775Z,56.45
2022-12-24T00:56:25.314Z,48.85
2022-12-24T00:58:54.357Z,50.55
2022-12-24T01:01:23.888Z,52.20
2022-12-24T01:03:53.258Z,50.83
2022-12-24T01:06:23.430Z,48.65
2022-12-24T01:08:53.103Z,47.83
2022-12-24T01:11:21.985Z,38.55
2022-12-24T01:13:50.874Z,41.10
2022-12-24T01:16:22.579Z,34.80
2022-12-24T01:18:51.481Z,34.88
2022-12-24T01:21:20.290Z,36.63
2022-12-24T01:23:49.119Z,35.42
2022-12-24T01:26:18.035Z,42.58
2022-12-24T01:28:46.807Z,36.92
2022-12-24T01:31:18.248Z,38.05
2022-12-24T01:33:47.946Z,36.70
2022-12-24T01:36:16.934Z,30.13
2022-12-24T01:38:45.763Z,28.65
2022-12-24T01:41:38.517Z,34.42
2022-12-24T01:44:33.514Z,35.58
2022-12-24T01:47:16.392Z,29.70
2022-12-24T01:49:49.868Z,27.60
2022-12-24T01:52:22.879Z,25.38
2022-12-24T01:57:26.966Z,25.88
2022-12-24T01:59:59.812Z,24.13
2022-12-24T02:02:29.935Z,23.27
2022-12-24T02:05:07.569Z,26.50
2022-12-24T02:07:36.496Z,22.17
2022-12-24T02:10:06.781Z,23.33
2022-12-24T02:12:38.840Z,21.23
2022-12-24T02:15:10.723Z,19.92
2022-12-24T02:18:18.758Z,20.25
2022-12-24T02:21:26.792Z,22.98
2022-12-24T02:24:19.585Z,22.60
2022-12-24T02:27:23.975Z,26.20
2022-12-24T02:30:26.677Z,22.02
2022-12-24T02:33:15.666Z,22.33
2022-12-24T02:36:12.738Z,22.92
2022-12-24T02:38:55.997Z,20.38
2022-12-24T02:43:58.787Z,21.35
2022-12-24T02:46:31.272Z,19.48
2022-12-24T02:49:01.887Z,20.85
2022-12-24T02:51:30.706Z,18.73
2022-12-24T02:54:00.711Z,22.42
2022-12-24T02:56:39.360Z,24.50
2022-12-24T02:59:19.877Z,26.58
2022-12-24T03:02:00.630Z,32.45
2022-12-24T03:04:41.418Z,19.90
2022-12-24T03:07:22.644Z,16.98
2022-12-24T03:10:30.601Z,21.58
2022-12-24T03:13:05.844Z,20.75
2022-12-24T03:15:35.251Z,20.95
2022-12-24T03:18:07.660Z,16.27
2022-12-24T03:20:42.290Z,20.05
2022-12-24T03:23:11.308Z,17.30
2022-12-24T03:25:43.509Z,16.30
2022-12-24T03:28:15.401Z,19.33
2022-12-24T03:30:46.405Z,17.80
2022-12-24T03:33:16.099Z,14.98
2022-12-24T03:35:45.210Z,16.08
2022-12-24T03:38:14.000Z,15.70
2022-12-24T03:40:42.681Z,15.50
2022-12-24T03:43:11.488Z,14.43
2022-12-24T03:45:40.481Z,15.18
2022-12-24T03:48:09.548Z,14.13
2022-12-24T03:50:38.690Z,20.00
2022-12-24T03:53:07.558Z,17.38
2022-12-24T03:55:36.464Z,12.15
2022-12-24T03:58:05.391Z,15.23
2022-12-24T04:00:34.549Z,15.85
2022-12-24T04:03:03.547Z,14.05
2022-12-24T04:05:32.336Z,15.23
2022-12-24T04:08:01.076Z,14.50
2022-12-24T04:10:29.966Z,14.65
2022-12-24T04:12:58.763Z,12.38
2022-12-24T04:15:27.682Z,15.88
2022-12-24T04:17:56.524Z,11.52
2022-12-24T04:20:25.245Z,14.48
2022-12-24T04:22:55.353Z,14.40
2022-12-24T04:25:24.127Z,14.43
2022-12-24T04:27:52.852Z,18.42
2022-12-24T04:30:21.868Z,15.27
2022-12-24T04:32:50.719Z,14.52
2022-12-24T04:35:19.580Z,14.30
2022-12-24T04:37:48.325Z,15.18
2022-12-24T04:40:17.133Z,12.85
2022-12-24T04:42:45.917Z,13.02
2022-12-24T04:45:14.731Z,12.93
2022-12-24T04:47:43.581Z,12.82
2022-12-24T04:50:12.911Z,12.52
2022-12-24T04:52:41.593Z,11.93
2022-12-24T04:55:10.922Z,14.90
2022-12-24T04:57:39.852Z,12.57
2022-12-24T05:00:09.784Z,11.13
2022-12-24T05:02:39.191Z,11.40
2022-12-24T05:05:11.025Z,12.68
2022-12-24T05:07:39.836Z,12.57
2022-12-24T05:10:09.507Z,13.95
2022-12-24T05:12:38.452Z,12.40
2022-12-24T05:15:07.845Z,11.10
2022-12-24T05:17:36.650Z,11.95
2022-12-24T05:20:05.900Z,13.45
2022-12-24T05:22:54.380Z,10.80
2022-12-24T05:25:42.806Z,14.20
2022-12-24T05:28:11.627Z,11.00
2022-12-24T05:30:40.491Z,13.07
2022-12-24T05:33:09.323Z,9.85
2022-12-24T05:35:38.089Z,9.75
2022-12-24T05:38:06.877Z,9.50
2022-12-24T05:40:35.845Z,11.40
2022-12-24T05:43:04.663Z,10.98
2022-12-24T05:45:33.998Z,13.40
2022-12-24T05:48:02.824Z,14.45
2022-12-24T05:50:31.695Z,14.23
2022-12-24T05:53:00.519Z,11.88
2022-12-24T05:55:29.274Z,14.85
2022-12-24T05:57:58.016Z,8.82
2022-12-24T06:00:27.212Z,12.95
2022-12-24T06:02:56.110Z,12.60
2022-12-24T06:05:25.144Z,10.02
2022-12-24T06:07:53.992Z,12.27
2022-12-24T06:10:22.971Z,10.15
2022-12-24T06:12:52.095Z,9.75
2022-12-24T06:15:24.065Z,14.15
2022-12-24T06:17:53.237Z,11.18
2022-12-24T06:20:22.091Z,13.93
2022-12-24T06:22:50.883Z,9.27
2022-12-24T06:25:19.743Z,10.48
2022-12-24T06:27:48.559Z,8.27
2022-12-24T06:30:18.688Z,13.68
2022-12-24T06:32:47.702Z,10.68
2022-12-24T06:35:16.486Z,7.90
2022-12-24T06:37:45.378Z,9.40
2022-12-24T06:40:14.120Z,7.70
2022-12-24T06:42:42.853Z,9.23
2022-12-24T06:45:12.186Z,9.20
2022-12-24T06:47:40.893Z,10.50
2022-12-24T06:50:10.029Z,10.90
2022-12-24T06:52:39.344Z,8.57
2022-12-24T06:55:10.876Z,7.75
2022-12-24T06:57:39.716Z,9.60
2022-12-24T07:00:12.049Z,9.55
2022-12-24T07:02:43.887Z,9.15
2022-12-24T07:05:15.070Z,10.35
2022-12-24T07:07:46.044Z,10.48
2022-12-24T07:10:17.019Z,10.27
2022-12-24T07:12:45.942Z,9.85
2022-12-24T07:15:15.964Z,9.90
2022-12-24T07:17:45.110Z,7.65
2022-12-24T07:20:16.575Z,11.85
2022-12-24T07:22:45.801Z,12.27
2022-12-24T07:25:14.643Z,8.85
2022-12-24T07:27:43.443Z,9.98
2022-12-24T07:30:12.749Z,7.40
2022-12-24T07:32:41.653Z,9.73
2022-12-24T07:35:11.103Z,6.75
2022-12-24T07:37:39.903Z,9.60
2022-12-24T07:40:10.855Z,8.38
2022-12-24T07:42:39.667Z,8.38
2022-12-24T07:45:09.304Z,9.45
2022-12-24T07:47:38.267Z,8.10
2022-12-24T07:50:08.297Z,8.68
2022-12-24T07:52:37.140Z,6.35
2022-12-24T07:55:06.254Z,6.70
2022-12-24T07:57:35.151Z,7.18
2022-12-24T08:00:04.052Z,7.97
2022-12-24T08:02:32.979Z,6.45
2022-12-24T08:05:02.048Z,8.95
2022-12-24T08:07:30.902Z,7.35
2022-12-24T08:09:59.772Z,9.93
2022-12-24T08:12:28.534Z,11.57
2022-12-24T08:14:57.285Z,6.97
2022-12-24T08:17:31.841Z,10.25
2022-12-24T08:20:01.199Z,9.18
2022-12-24T08:22:30.076Z,7.22
2022-12-24T08:24:58.900Z,11.75
2022-12-24T08:27:27.663Z,8.38
2022-12-24T08:29:56.429Z,7.25
2022-12-24T08:32:25.243Z,15.40
2022-12-24T08:34:54.004Z,10.48
2022-12-24T08:37:23.091Z,9.75
2022-12-24T08:39:51.962Z,10.15
2022-12-24T08:42:20.979Z,18.17
2022-12-24T08:44:49.816Z,9.10
2022-12-24T08:47:18.623Z,7.57
2022-12-24T08:49:47.695Z,10.82
2022-12-24T08:52:16.464Z,9.73
2022-12-24T08:54:45.360Z,8.82
2022-12-24T08:57:15.649Z,13.63
2022-12-24T08:59:44.546Z,10.40
2022-12-24T09:02:13.566Z,7.93
2022-12-24T09:04:42.703Z,9.02
2022-12-24T09:07:12.044Z,9.23
2022-12-24T09:09:40.809Z,11.32
2022-12-24T09:12:11.163Z,9.68
2022-12-24T09:14:39.896Z,12.23
2022-12-24T09:17:08.833Z,12.10
2022-12-24T09:19:37.722Z,10.85
2022-12-24T09:22:06.488Z,13.35
2022-12-24T09:24:37.249Z,15.07
2022-12-24T09:27:06.155Z,10.73
2022-12-24T09:29:35.316Z,12.05
2022-12-24T09:32:04.368Z,10.15
2022-12-24T09:34:33.282Z,13.00
2022-12-24T09:37:04.111Z,11.55
2022-12-24T09:39:32.935Z,12.82
2022-12-24T09:42:21.796Z,12.10
2022-12-24T09:45:03.508Z,15.80
2022-12-24T09:47:42.728Z,16.08
2022-12-24T09:50:41.877Z,11.00
2022-12-24T09:53:38.313Z,11.60
2022-12-24T09:56:14.338Z,17.33
2022-12-24T09:58:48.949Z,13.00
2022-12-24T10:01:19.794Z,12.60
2022-12-24T10:03:49.438Z,11.85
2022-12-24T10:06:28.714Z,14.25
2022-12-24T10:09:32.048Z,11.18
2022-12-24T10:12:24.289Z,11.20
2022-12-24T10:15:32.300Z,13.48
2022-12-24T10:18:05.501Z,12.55
2022-12-24T10:20:45.839Z,12.02
2022-12-24T10:23:42.325Z,17.67
2022-12-24T10:26:27.459Z,17.08
2022-12-24T10:29:02.954Z,19.35
2022-12-24T10:31:35.294Z,18.23
2022-12-24T10:34:13.934Z,15.40
2022-12-24T10:36:42.856Z,21.67
2022-12-24T10:39:21.689Z,22.85
2022-12-24T10:41:53.039Z,19.52
2022-12-24T10:44:26.239Z,18.67
2022-12-24T10:46:55.426Z,17.23
2022-12-24T10:49:35.244Z,21.63
2022-12-24T10:52:12.620Z,24.80
2022-12-24T10:55:20.540Z,26.40
2022-12-24T10:58:02.581Z,24.38
2022-12-24T11:00:36.266Z,21.55
2022-12-24T11:03:37.356Z,25.65
2022-12-24T11:06:14.047Z,23.15
2022-12-24T11:08:46.077Z,25.67
2022-12-24T11:11:17.962Z,27.10
2022-12-24T11:13:55.017Z,21.27
2022-12-24T11:16:33.295Z,22.77
2022-12-24T11:19:05.691Z,18.92
2022-12-24T11:21:39.268Z,17.30
2022-12-24T11:24:10.060Z,13.88
2022-12-24T11:26:38.859Z,14.98
2022-12-24T11:29:27.709Z,15.48
2022-12-24T11:32:21.772Z,12.32
2022-12-24T11:34:51.150Z,10.63
2022-12-24T11:37:25.082Z,12.05
2022-12-24T11:39:57.717Z,10.88
2022-12-24T11:42:41.974Z,12.20
2022-12-24T11:45:25.421Z,15.32
2022-12-24T11:47:55.295Z,15.38
2022-12-24T11:50:39.818Z,14.57
2022-12-24T11:53:19.163Z,16.02
2022-12-24T11:56:00.781Z,15.75
2022-12-24T11:58:54.414Z,15.55
2022-12-24T12:01:46.676Z,19.92
2022-12-24T12:04:18.738Z,17.95
2022-12-24T12:07:15.077Z,15.73
2022-12-24T12:09:49.445Z,12.70
2022-12-24T12:12:25.537Z,18.75
2022-12-24T12:15:03.139Z,14.25
2022-12-24T12:17:40.873Z,16.88
2022-12-24T12:20:26.188Z,13.73
2022-12-24T12:23:05.069Z,15.73
2022-12-24T12:25:59.824Z,15.48
2022-12-24T12:28:38.696Z,12.38
2022-12-24T12:31:16.985Z,18.05
2022-12-24T12:34:23.597Z,13.35
2022-12-24T12:36:59.723Z,18.83
2022-12-24T12:39:28.577Z,13.18
2022-12-24T12:42:09.349Z,11.13
2022-12-24T12:44:59.332Z,10.32
2022-12-24T12:47:48.177Z,9.52
2022-12-24T12:50:33.491Z,16.02
2022-12-24T12:53:14.304Z,16.50
2022-12-24T12:55:47.473Z,14.52
2022-12-24T12:58:35.353Z,13.25
2022-12-24T13:01:16.816Z,11.32
2022-12-24T13:03:53.432Z,22.05
2022-12-24T13:06:37.652Z,12.55
2022-12-24T13:09:22.158Z,12.38
2022-12-24T13:12:00.373Z,12.55
2022-12-24T13:14:57.629Z,15.23
2022-12-24T13:17:27.470Z,11.68
2022-12-24T13:20:21.345Z,10.40
2022-12-24T13:22:54.759Z,11.27
2022-12-24T13:25:28.650Z,12.98
2022-12-24T13:27:57.507Z,10.82
2022-12-24T13:30:42.369Z,14.45
2022-12-24T13:33:14.014Z,10.88
2022-12-24T13:36:04.252Z,13.07
2022-12-24T13:38:35.066Z,12.52
2022-12-24T13:41:41.680Z,11.77
2022-12-24T13:44:15.218Z,13.52
2022-12-24T13:47:06.060Z,12.70
2022-12-24T13:49:44.914Z,12.13
2022-12-24T13:52:15.646Z,13.10
2022-12-24T13:54:51.732Z,10.30
2022-12-24T13:57:38.134Z,11.27
2022-12-24T14:00:28.276Z,13.10
2022-12-24T14:03:07.415Z,12.18
2022-12-24T14:05:40.849Z,11.57
2022-12-24T14:08:15.409Z,8.88
2022-12-24T14:10:57.726Z,10.93
2022-12-24T14:13:42.955Z,13.88
2022-12-24T14:16:24.765Z,10.70
2022-12-24T14:19:37.334Z,11.18
2022-12-24T14:22:19.840Z,12.38
2022-12-24T14:24:57.564Z,9.30
2022-12-24T14:27:33.416Z,8.95
2022-12-24T14:30:08.154Z,9.57
2022-12-24T14:32:40.099Z,10.63
2022-12-24T14:35:30.141Z,11.77
2022-12-24T14:38:08.582Z,12.38
2022-12-24T14:41:00.470Z,11.02
2022-12-24T14:44:04.889Z,11.55
2022-12-24T14:46:45.426Z,12.13
2022-12-24T14:49:35.927Z,8.50
2022-12-24T14:52:30.550Z,9.88
2022-12-24T14:55:01.446Z,9.38
2022-12-24T14:57:30.415Z,12.95
2022-12-24T15:00:01.633Z,8.95
2022-12-24T15:02:49.567Z,8.85
2022-12-24T15:05:25.900Z,9.88
2022-12-24T15:08:01.633Z,8.48
2022-12-24T15:10:35.702Z,9.98
2022-12-24T15:13:15.135Z,8.32
2022-12-24T15:15:52.195Z,8.43
2022-12-24T15:18:27.457Z,9.60
2022-12-24T15:21:03.996Z,10.07
2022-12-24T15:23:37.989Z,8.35
2022-12-24T15:26:10.135Z,13.07
2022-12-24T15:28:40.439Z,9.57
2022-12-24T15:31:14.829Z,12.05
2022-12-24T15:33:47.283Z,10.95
2022-12-24T15:36:18.869Z,8.48
2022-12-24T15:38:53.822Z,10.75
2022-12-24T15:41:27.915Z,8.43
2022-12-24T15:44:02.670Z,9.55
2022-12-24T15:46:32.899Z,11.07
2022-12-24T15:49:03.425Z,11.52
2022-12-24T15:51:40.150Z,9.00
2022-12-24T15:54:20.635Z,10.50
2022-12-24T15:56:49.888Z,9.98
2022-12-24T15:59:37.378Z,10.13
2022-12-24T16:02:42.185Z,10.75
2022-12-24T16:05:32.426Z,9.90
2022-12-24T16:08:23.890Z,11.18
2022-12-24T16:11:07.919Z,10.85
2022-12-24T16:13:52.902Z,11.10
2022-12-24T16:16:32.002Z,11.32
2022-12-24T16:19:02.167Z,12.02
2022-12-24T16:21:33.497Z,13.18
2022-12-24T16:24:22.030Z,9.93
2022-12-24T16:26:51.071Z,11.57
2022-12-24T16:29:21.248Z,12.32
2022-12-24T16:31:52.915Z,10.95
2022-12-24T16:34:25.362Z,11.48
2022-12-24T16:36:54.277Z,13.40
2022-12-24T16:39:26.107Z,10.32
2022-12-24T16:42:18.244Z,10.25
2022-12-24T16:44:47.303Z,10.93
2022-12-24T16:47:25.196Z,11.88
2022-12-24T16:49:54.283Z,14.38
2022-12-24T16:52:27.348Z,11.02
2022-12-24T16:57:25.893Z,10.63
2022-12-24T17:03:36.790Z,11.90
2022-12-24T17:06:07.732Z,13.90
2022-12-24T17:08:36.532Z,10.32
2022-12-24T17:11:05.267Z,10.23
2022-12-24T17:13:33.957Z,11.82
2022-12-24T17:16:04.538Z,10.43
2022-12-24T17:18:33.385Z,13.88
2022-12-24T17:21:04.784Z,11.90
2022-12-24T17:23:33.477Z,17.23
2022-12-24T17:26:06.272Z,13.85
2022-12-24T17:28:38.170Z,14.13
2022-12-24T17:31:17.340Z,10.00
2022-12-24T17:33:46.203Z,12.32
2022-12-24T17:36:14.933Z,13.40
2022-12-24T17:38:43.719Z,16.88
2022-12-24T17:41:15.552Z,15.63
2022-12-24T17:43:44.638Z,18.10
2022-12-24T17:46:17.341Z,14.90
2022-12-24T17:48:46.645Z,15.57
2022-12-24T17:51:17.256Z,16.92
2022-12-24T17:53:46.267Z,12.38
2022-12-24T17:56:16.555Z,15.57
2022-12-24T17:58:47.422Z,14.77
2022-12-24T18:01:20.065Z,15.32
2022-12-24T18:03:50.125Z,14.35
2022-12-24T18:06:20.724Z,16.88
2022-12-24T18:08:49.533Z,19.23
2022-12-24T18:11:21.794Z,16.27
2022-12-24T18:13:51.592Z,15.68
2022-12-24T18:16:25.575Z,18.60
2022-12-24T18:18:54.882Z,17.08
2022-12-24T18:21:25.680Z,21.05
2022-12-24T18:23:57.718Z,18.00
2022-12-24T18:26:29.492Z,20.75
2022-12-24T18:28:59.873Z,18.02
2022-12-24T18:31:30.786Z,17.73
2022-12-24T18:33:59.558Z,20.50
2022-12-24T18:36:28.437Z,19.10
2022-12-24T18:38:57.427Z,17.17
2022-12-24T18:41:28.761Z,17.50
2022-12-24T18:43:59.268Z,17.92
2022-12-24T18:46:30.710Z,21.00
2022-12-24T18:49:01.303Z,18.63
2022-12-24T18:51:34.217Z,17.92
2022-12-24T18:54:04.033Z,17.75
2022-12-24T18:56:33.549Z,21.90
2022-12-24T18:59:04.442Z,19.10
2022-12-24T19:01:35.923Z,20.48
2022-12-24T19:04:05.229Z,19.75
2022-12-24T19:06:34.422Z,19.00
2022-12-24T19:09:03.243Z,18.23
2022-12-24T19:11:34.283Z,17.65
2022-12-24T19:14:04.224Z,20.50
2022-12-24T19:16:39.301Z,19.45
2022-12-24T19:19:10.483Z,18.63
2022-12-24T19:21:39.237Z,18.65
2022-12-24T19:24:11.577Z,18.02
2022-12-24T19:26:40.341Z,21.33
2022-12-24T19:29:09.088Z,19.63
2022-12-24T19:31:37.936Z,16.42
2022-12-24T19:34:07.187Z,17.65
2022-12-24T19:36:36.521Z,17.70
2022-12-24T19:39:05.298Z,20.67
2022-12-24T19:41:34.129Z,17.85
2022-12-24T19:44:04.281Z,17.08
2022-12-24T19:46:37.293Z,17.08
2022-12-24T19:51:36.925Z,16.40
2022-12-24T19:54:07.119Z,17.95
2022-12-24T19:56:36.070Z,17.13
2022-12-24T19:59:05.836Z,17.48
2022-12-24T20:01:36.561Z,15.32
2022-12-24T20:04:05.859Z,14.48
2022-12-24T20:06:36.536Z,16.15
2022-12-24T20:09:08.672Z,16.02
2022-12-24T20:11:37.958Z,18.10
2022-12-24T20:14:08.097Z,14.77
2022-12-24T20:16:37.037Z,14.15
2022-12-24T20:19:07.851Z,16.38
2022-12-24T20:21:36.825Z,16.38
2022-12-24T20:24:06.246Z,15.43
2022-12-24T20:26:35.496Z,16.70
2022-12-24T20:29:07.679Z,12.60
2022-12-24T20:31:37.629Z,16.10
2022-12-24T20:34:08.568Z,15.40
2022-12-24T20:36:38.696Z,14.75
2022-12-24T20:39:08.508Z,16.10
2022-12-24T20:41:38.103Z,14.98
2022-12-24T20:44:07.080Z,14.35
2022-12-24T20:46:36.381Z,14.85
2022-12-24T20:49:06.163Z,14.98
2022-12-24T20:51:35.271Z,15.48
2022-12-24T20:54:04.194Z,14.35
2022-12-24T20:56:33.189Z,16.05
2022-12-24T20:59:03.287Z,14.63
2022-12-24T21:01:32.376Z,16.90
2022-12-24T21:04:05.380Z,16.02
2022-12-24T21:06:35.725Z,16.77
2022-12-24T21:09:06.749Z,15.48
2022-12-24T21:11:51.772Z,15.23
2022-12-24T21:14:24.116Z,14.95
2022-12-24T21:16:54.937Z,14.10
2022-12-24T21:19:26.077Z,15.02
2022-12-24T21:21:56.117Z,14.15
2022-12-24T21:24:25.896Z,15.85
2022-12-24T21:26:54.714Z,14.40
2022-12-24T21:29:23.684Z,13.27
2022-12-24T21:31:52.423Z,14.40
2022-12-24T21:34:21.312Z,14.27
2022-12-24T21:36:50.169Z,13.52
2022-12-24T21:39:18.934Z,13.65
2022-12-24T21:41:47.799Z,17.02
2022-12-24T21:44:16.594Z,15.68
2022-12-24T21:46:45.371Z,14.23
2022-12-24T21:49:33.896Z,29.15
2022-12-24T21:52:02.721Z,16.05
2022-12-24T21:54:32.455Z,16.27
2022-12-24T21:57:23.637Z,13.90
